createdAt,value
2023-03-22T00:02:13.040Z,64.92
2023-03-22T00:04:39.533Z,64.61
2023-03-22T00:07:06.009Z,64.58
2023-03-22T00:09:32.497Z,64.92
2023-03-22T00:11:58.971Z,65.73
2023-03-22T00:14:25.625Z,65.83
2023-03-22T00:16:52.118Z,65.37
2023-03-22T00:19:18.667Z,65.66
2023-03-22T00:21:46.262Z,65.33
2023-03-22T00:24:13.056Z,65.26
2023-03-22T00:26:39.659Z,65.46
2023-03-22T00:29:06.249Z,65.55
2023-03-22T00:31:32.812Z,65.42
2023-03-22T00:34:00.143Z,65.52
2023-03-22T00:36:26.607Z,65.65
2023-03-22T00:38:53.117Z,66.02
2023-03-22T00:41:23.179Z,66.53
2023-03-22T00:43:51.405Z,66.47
2023-03-22T00:46:20.552Z,66.47
2023-03-22T00:48:48.069Z,66.12
2023-03-22T00:51:16.297Z,66.97
2023-03-22T00:53:43.805Z,67.08
2023-03-22T00:56:13.960Z,66.88
2023-03-22T00:58:40.943Z,67.17
2023-03-22T01:01:08.186Z,66.93
2023-03-22T01:03:35.044Z,66.60
2023-03-22T01:06:01.774Z,65.78
2023-03-22T01:08:32.997Z,65.63
2023-03-22T01:11:01.173Z,65.96
2023-03-22T01:13:28.929Z,65.70
2023-03-22T01:15:55.830Z,65.84
2023-03-22T01:18:22.364Z,65.82
2023-03-22T01:20:48.859Z,65.34
2023-03-22T01:23:15.870Z,65.57
2023-03-22T01:25:42.532Z,66.06
2023-03-22T01:28:09.690Z,66.54
2023-03-22T01:30:36.842Z,66.43
2023-03-22T01:33:03.455Z,65.68
2023-03-22T01:35:30.666Z,66.04
2023-03-22T01:37:57.155Z,65.99
2023-03-22T01:40:25.997Z,65.87
2023-03-22T01:42:56.353Z,65.38
2023-03-22T01:45:22.689Z,65.77
2023-03-22T01:47:56.992Z,65.46
2023-03-22T01:50:25.824Z,65.38
2023-03-22T01:52:57.017Z,64.91
2023-03-22T01:55:26.036Z,65.21
2023-03-22T01:57:54.671Z,65.19
2023-03-22T02:00:22.354Z,64.86
2023-03-22T02:02:52.374Z,64.45
2023-03-22T02:05:22.138Z,64.94
2023-03-22T02:07:50.117Z,65.19
2023-03-22T02:10:23.387Z,64.63
2023-03-22T02:13:26.696Z,64.82
2023-03-22T02:16:23.085Z,64.62
2023-03-22T02:19:05.738Z,65.13
2023-03-22T02:21:50.692Z,64.63
2023-03-22T02:24:50.881Z,64.82
2023-03-22T02:27:42.052Z,64.91
2023-03-22T02:30:58.728Z,64.61
2023-03-22T02:34:15.568Z,64.79
2023-03-22T02:37:27.089Z,65.40
2023-03-22T02:40:07.159Z,65.05
2023-03-22T02:43:10.764Z,65.21
2023-03-22T02:46:18.333Z,65.38
2023-03-22T02:49:03.741Z,65.87
2023-03-22T02:51:57.320Z,65.62
2023-03-22T02:54:39.777Z,65.68
2023-03-22T02:57:31.367Z,65.42
2023-03-22T03:00:01.263Z,65.50
2023-03-22T03:02:30.682Z,65.71
2023-03-22T03:04:58.547Z,65.50
2023-03-22T03:07:28.774Z,65.34
2023-03-22T03:09:56.468Z,65.54
2023-03-22T03:12:28.064Z,65.02
2023-03-22T03:14:54.746Z,66.16
2023-03-22T03:17:35.450Z,65.89
2023-03-22T03:20:30.019Z,66.20
2023-03-22T03:23:32.318Z,66.45
2023-03-22T03:26:35.695Z,66.46
2023-03-22T03:29:10.186Z,65.96
2023-03-22T03:32:06.568Z,66.12
2023-03-22T03:34:49.457Z,66.58
2023-03-22T03:37:28.211Z,67.58
2023-03-22T03:40:05.171Z,67.18
2023-03-22T03:42:32.511Z,66.68
2023-03-22T03:45:00.234Z,66.62
2023-03-22T03:47:29.298Z,66.34
2023-03-22T03:49:56.271Z,66.43
2023-03-22T03:52:24.447Z,66.53
2023-03-22T03:54:51.229Z,66.19
2023-03-22T03:57:17.894Z,66.51
2023-03-22T03:59:44.382Z,66.14
2023-03-22T04:02:10.917Z,65.86
2023-03-22T04:04:38.333Z,65.85
2023-03-22T04:07:07.058Z,66.04
2023-03-22T04:09:37.293Z,66.08
2023-03-22T04:12:04.140Z,65.73
2023-03-22T04:14:30.689Z,66.64
2023-03-22T04:16:57.324Z,66.78
2023-03-22T04:19:23.968Z,66.50
2023-03-22T04:21:53.094Z,65.88
2023-03-22T04:24:21.806Z,65.76
2023-03-22T04:26:48.842Z,66.27
2023-03-22T04:29:16.031Z,66.30
2023-03-22T04:31:42.519Z,66.27
2023-03-22T04:34:09.000Z,65.73
2023-03-22T04:36:39.303Z,65.93
2023-03-22T04:39:10.381Z,65.25
2023-03-22T04:41:37.535Z,65.93
2023-03-22T04:44:05.909Z,65.54
2023-03-22T04:46:36.586Z,65.30
2023-03-22T04:49:06.581Z,65.62
2023-03-22T04:51:33.074Z,66.01
2023-03-22T04:54:00.338Z,65.59
2023-03-22T04:56:26.980Z,65.79
2023-03-22T04:58:53.459Z,65.25
2023-03-22T05:01:19.996Z,65.40
2023-03-22T05:03:47.399Z,65.43
2023-03-22T05:06:15.704Z,65.89
2023-03-22T05:08:42.747Z,65.74
2023-03-22T05:11:17.004Z,66.23
2023-03-22T05:13:43.499Z,66.49
2023-03-22T05:16:11.101Z,66.19
2023-03-22T05:18:42.251Z,66.13
2023-03-22T05:21:15.529Z,66.17
2023-03-22T05:23:43.906Z,66.28
2023-03-22T05:26:16.000Z,66.50
2023-03-22T05:28:44.177Z,66.79
2023-03-22T05:31:11.671Z,66.67
2023-03-22T05:33:38.288Z,66.54
2023-03-22T05:36:05.343Z,66.92
2023-03-22T05:38:31.817Z,66.84
2023-03-22T05:40:58.280Z,66.93
2023-03-22T05:43:24.769Z,67.08
2023-03-22T05:45:51.337Z,67.00
2023-03-22T05:48:18.043Z,67.69
2023-03-22T05:50:44.556Z,67.40
2023-03-22T05:53:11.818Z,67.60
2023-03-22T05:55:38.643Z,68.38
2023-03-22T05:58:05.396Z,68.30
2023-03-22T06:00:32.241Z,68.34
2023-03-22T06:03:03.463Z,68.75
2023-03-22T06:05:31.776Z,68.55
2023-03-22T06:07:59.710Z,68.56
2023-03-22T06:10:28.029Z,69.24
2023-03-22T06:12:54.785Z,69.69
2023-03-22T06:15:21.777Z,68.72
2023-03-22T06:17:48.341Z,69.42
2023-03-22T06:20:15.509Z,69.28
2023-03-22T06:22:42.730Z,69.38
2023-03-22T06:25:10.856Z,68.97
2023-03-22T06:27:37.628Z,69.27
2023-03-22T06:30:05.327Z,68.99
2023-03-22T06:32:31.784Z,69.47
2023-03-22T06:34:58.325Z,69.36
2023-03-22T06:37:25.505Z,69.67
2023-03-22T06:39:52.220Z,68.88
2023-03-22T06:42:19.130Z,69.57
2023-03-22T06:44:45.670Z,69.40
2023-03-22T06:47:12.620Z,69.21
2023-03-22T06:49:39.726Z,69.81
2023-03-22T06:52:06.551Z,69.92
2023-03-22T06:54:33.268Z,69.39
2023-03-22T06:56:59.931Z,69.34
2023-03-22T06:59:26.637Z,69.78
2023-03-22T07:01:53.168Z,70.04
2023-03-22T07:04:20.043Z,69.83
2023-03-22T07:06:46.920Z,69.49
2023-03-22T07:09:13.414Z,69.57
2023-03-22T07:11:40.093Z,69.45
2023-03-22T07:14:06.683Z,68.75
2023-03-22T07:16:33.221Z,68.89
2023-03-22T07:18:59.761Z,69.00
2023-03-22T07:21:26.599Z,68.33
2023-03-22T07:23:53.355Z,68.76
2023-03-22T07:26:19.825Z,68.99
2023-03-22T07:28:46.360Z,68.83
2023-03-22T07:31:14.385Z,68.28
2023-03-22T07:33:41.228Z,68.23
2023-03-22T07:36:08.853Z,68.04
2023-03-22T07:38:36.126Z,67.83
2023-03-22T07:41:02.601Z,67.27
2023-03-22T07:43:29.189Z,67.29
2023-03-22T07:45:55.758Z,67.45
2023-03-22T07:48:23.601Z,67.09
2023-03-22T07:50:54.159Z,66.55
2023-03-22T07:53:20.767Z,66.39
2023-03-22T07:55:48.041Z,66.18
2023-03-22T07:58:14.918Z,65.59
2023-03-22T08:00:41.770Z,65.83
2023-03-22T08:03:13.239Z,65.51
2023-03-22T08:05:42.818Z,65.45
2023-03-22T08:08:10.038Z,66.02
2023-03-22T08:10:36.801Z,65.58
2023-03-22T08:13:03.389Z,65.63
2023-03-22T08:15:29.989Z,65.63
2023-03-22T08:17:58.003Z,65.19
2023-03-22T08:20:27.490Z,64.71
2023-03-22T08:22:54.854Z,64.84
2023-03-22T08:25:22.194Z,64.58
2023-03-22T08:27:48.705Z,64.02
2023-03-22T08:30:15.465Z,64.25
2023-03-22T08:32:42.065Z,64.19
2023-03-22T08:35:09.574Z,63.84
2023-03-22T08:37:36.174Z,63.49
2023-03-22T08:40:04.928Z,63.28
2023-03-22T08:42:31.505Z,63.19
2023-03-22T08:44:57.956Z,62.89
2023-03-22T08:47:24.474Z,62.78
2023-03-22T08:49:51.056Z,62.81
2023-03-22T08:52:17.531Z,63.18
2023-03-22T08:54:44.073Z,63.10
2023-03-22T08:57:10.910Z,62.97
2023-03-22T08:59:37.428Z,62.78
2023-03-22T09:02:04.121Z,62.35
2023-03-22T09:04:30.875Z,62.21
2023-03-22T09:06:57.374Z,62.48
2023-03-22T09:09:23.874Z,62.21
2023-03-22T09:11:50.506Z,61.91
2023-03-22T09:14:17.093Z,61.86
2023-03-22T09:16:43.694Z,61.41
2023-03-22T09:19:10.386Z,61.27
2023-03-22T09:21:37.610Z,61.13
2023-03-22T09:24:04.392Z,60.80
2023-03-22T09:26:31.006Z,60.57
2023-03-22T09:28:57.505Z,60.27
2023-03-22T09:31:24.115Z,59.97
2023-03-22T09:33:50.601Z,59.64
2023-03-22T09:36:17.243Z,59.79
2023-03-22T09:38:43.768Z,59.80
2023-03-22T09:41:20.724Z,59.10
2023-03-22T09:44:00.938Z,59.10
2023-03-22T09:46:35.884Z,58.87
2023-03-22T09:49:12.626Z,58.37
2023-03-22T09:51:52.250Z,56.61
2023-03-22T09:54:24.957Z,57.98
2023-03-22T09:57:04.888Z,56.83
2023-03-22T09:59:39.913Z,57.32
2023-03-22T10:02:43.038Z,56.21
2023-03-22T10:05:17.846Z,57.05
2023-03-22T10:08:06.385Z,54.56
2023-03-22T10:10:33.015Z,56.76
2023-03-22T10:13:10.459Z,55.45
2023-03-22T10:15:43.145Z,55.23
2023-03-22T10:18:20.093Z,54.66
2023-03-22T10:20:59.130Z,55.33
2023-03-22T10:24:16.840Z,54.53
2023-03-22T10:26:47.720Z,55.12
2023-03-22T10:29:39.903Z,52.82
2023-03-22T10:32:16.561Z,54.82
2023-03-22T10:34:44.062Z,54.69
2023-03-22T10:37:23.121Z,54.02
2023-03-22T10:39:55.197Z,53.86
2023-03-22T10:42:30.012Z,53.30
2023-03-22T10:45:14.117Z,52.52
2023-03-22T10:47:57.753Z,52.91
2023-03-22T10:50:34.304Z,52.68
2023-03-22T10:53:18.537Z,51.41
2023-03-22T10:55:45.288Z,52.72
2023-03-22T10:58:17.250Z,51.93
2023-03-22T11:00:50.425Z,51.15
2023-03-22T11:03:29.967Z,50.61
2023-03-22T11:06:07.060Z,50.89
2023-03-22T11:08:48.447Z,49.71
2023-03-22T11:11:23.424Z,50.00
2023-03-22T11:13:55.764Z,50.62
2023-03-22T11:16:23.709Z,50.33
2023-03-22T11:18:50.658Z,50.45
2023-03-22T11:21:21.314Z,50.07
2023-03-22T11:24:02.557Z,47.48
2023-03-22T11:26:40.522Z,49.32
2023-03-22T11:29:16.969Z,48.96
2023-03-22T11:31:59.609Z,49.87
2023-03-22T11:34:30.832Z,50.51
2023-03-22T11:37:01.073Z,49.97
2023-03-22T11:39:29.573Z,49.71
2023-03-22T11:42:03.827Z,48.25
2023-03-22T11:44:37.822Z,48.45
2023-03-22T11:47:08.124Z,48.93
2023-03-22T11:49:47.358Z,48.46
2023-03-22T11:52:23.024Z,48.96
2023-03-22T11:54:51.772Z,49.39
2023-03-22T11:57:26.418Z,48.86
2023-03-22T12:00:02.486Z,48.54
2023-03-22T12:02:41.749Z,48.71
2023-03-22T12:05:20.955Z,48.83
2023-03-22T12:07:58.805Z,49.01
2023-03-22T12:10:38.499Z,48.11
2023-03-22T12:13:19.104Z,48.63
2023-03-22T12:15:54.812Z,47.74
2023-03-22T12:18:41.406Z,47.96
2023-03-22T12:21:13.587Z,48.20
2023-03-22T12:23:40.209Z,48.40
2023-03-22T12:26:11.541Z,48.08
2023-03-22T12:29:06.394Z,47.11
2023-03-22T12:31:40.489Z,47.79
2023-03-22T12:34:17.037Z,47.36
2023-03-22T12:36:56.069Z,46.50
2023-03-22T12:39:37.688Z,45.96
2023-03-22T12:42:26.388Z,44.86
2023-03-22T12:45:05.708Z,46.61
2023-03-22T12:47:42.504Z,46.52
2023-03-22T12:50:17.004Z,47.06
2023-03-22T12:52:50.209Z,46.87
2023-03-22T12:55:38.172Z,45.95
2023-03-22T12:58:10.381Z,46.51
2023-03-22T13:00:46.751Z,46.47
2023-03-22T13:03:16.206Z,47.07
2023-03-22T13:05:46.556Z,46.30
2023-03-22T13:08:13.491Z,46.32
2023-03-22T13:11:08.400Z,46.77
2023-03-22T13:13:44.692Z,44.01
2023-03-22T13:16:11.435Z,45.88
2023-03-22T13:18:38.129Z,46.63
2023-03-22T13:21:22.611Z,45.24
2023-03-22T13:24:13.388Z,44.37
2023-03-22T13:26:47.809Z,45.17
2023-03-22T13:29:24.452Z,45.06
2023-03-22T13:31:51.023Z,45.72
2023-03-22T13:34:31.893Z,45.89
2023-03-22T13:37:01.508Z,46.50
2023-03-22T13:39:34.552Z,46.48
2023-03-22T13:42:19.913Z,46.34
2023-03-22T13:44:58.485Z,46.53
2023-03-22T13:47:47.012Z,46.37
2023-03-22T13:50:27.422Z,46.15
2023-03-22T13:53:07.560Z,45.87
2023-03-22T13:55:46.320Z,44.98
2023-03-22T13:58:36.450Z,44.97
2023-03-22T14:01:34.984Z,46.15
2023-03-22T14:04:10.554Z,46.28
2023-03-22T14:06:59.983Z,46.52
2023-03-22T14:09:52.840Z,47.83
2023-03-22T14:12:31.002Z,47.52
2023-03-22T14:15:03.488Z,48.01
2023-03-22T14:17:55.695Z,48.70
2023-03-22T14:20:27.002Z,48.13
